Time;durP1;ratioP1;P1;durP2;ratioP2;P2;SDS_P1;SDS_P2;PMS_P1;PMS_P2;Temp;Humidity;BMP_temperature;BMP_pressure;BME280_temperature;BME280_humidity;BME280_pressure;Samples;Min_cycle;Max_cycle;Signal;HPM_P1;HPM_P2
2023/08/27 00:00:10;;;;;;;9.27;8.23;;;13.70;99.90;;;;;;5061723;28;20044;-78
2023/08/27 00:02:40;;;;;;;8.13;7.40;;;13.80;99.90;;;;;;5071532;28;20159;-78
2023/08/27 00:05:10;;;;;;;8.77;8.00;;;13.80;99.90;;;;;;5049724;28;20056;-78
2023/08/27 00:07:37;;;;;;;7.85;7.25;;;13.70;99.90;;;;;;5049065;28;20102;-78
2023/08/27 00:10:04;;;;;;;8.30;7.50;;;13.60;99.90;;;;;;5039154;28;20183;-77
2023/08/27 00:12:31;;;;;;;8.02;7.43;;;13.50;99.90;;;;;;5067383;28;20040;-77
2023/08/27 00:14:58;;;;;;;8.38;7.60;;;13.40;99.90;;;;;;5067362;28;20051;-77
2023/08/27 00:17:24;;;;;;;8.13;7.43;;;13.40;99.90;;;;;;5044026;28;20633;-77
2023/08/27 00:19:51;;;;;;;10.20;8.20;;;13.50;99.90;;;;;;5051611;28;20043;-77
2023/08/27 00:22:18;;;;;;;10.60;7.65;;;13.40;99.90;;;;;;5064939;28;20056;-78
2023/08/27 00:24:44;;;;;;;9.02;8.20;;;13.40;99.90;;;;;;5060089;28;20033;-78
2023/08/27 00:27:14;;;;;;;7.78;7.05;;;13.40;99.90;;;;;;5043481;28;20086;-78
2023/08/27 00:29:40;;;;;;;8.65;7.20;;;13.40;99.90;;;;;;5048806;28;20051;-78
2023/08/27 00:32:07;;;;;;;8.20;7.43;;;13.40;99.90;;;;;;5053608;28;20071;-77
2023/08/27 00:34:50;;;;;;;8.77;7.30;;;13.40;99.90;;;;;;5060583;28;20839;-78
2023/08/27 00:37:16;;;;;;;11.18;6.93;;;13.40;99.90;;;;;;5037435;28;20043;-77
2023/08/27 00:39:43;;;;;;;7.22;6.68;;;13.30;99.90;;;;;;5047323;28;20045;-78
2023/08/27 00:42:14;;;;;;;7.28;6.57;;;13.30;99.90;;;;;;5057750;28;20833;-78
2023/08/27 00:44:41;;;;;;;7.55;6.95;;;13.30;99.90;;;;;;5041877;28;20070;-77
2023/08/27 00:47:08;;;;;;;7.88;7.22;;;13.30;99.90;;;;;;5044650;28;20048;-77
2023/08/27 00:49:35;;;;;;;7.25;6.50;;;13.20;99.90;;;;;;5062962;28;20106;-77
2023/08/27 00:52:04;;;;;;;10.15;6.60;;;13.20;99.90;;;;;;5047966;28;20041;-77
2023/08/27 00:54:33;;;;;;;8.32;6.45;;;13.20;99.90;;;;;;5051104;28;20097;-79
2023/08/27 00:57:03;;;;;;;7.30;6.45;;;13.00;99.90;;;;;;5045874;28;20028;-77
2023/08/27 00:59:31;;;;;;;8.25;5.60;;;13.00;99.90;;;;;;5035201;28;20063;-79
2023/08/27 01:01:57;;;;;;;10.00;5.80;;;12.80;99.90;;;;;;5058072;28;20049;-79
2023/08/27 01:04:24;;;;;;;6.95;6.25;;;12.60;99.90;;;;;;5072232;28;21184;-79
2023/08/27 01:06:51;;;;;;;7.53;5.22;;;12.60;99.90;;;;;;5055409;28;20066;-79
2023/08/27 01:09:18;;;;;;;6.68;5.43;;;12.60;99.90;;;;;;5043545;28;20064;-80
2023/08/27 01:12:17;;;;;;;8.93;7.07;;;12.60;99.90;;;;;;5045390;28;20044;-77
2023/08/27 01:14:47;;;;;;;6.50;5.90;;;12.70;99.90;;;;;;5048232;28;20063;-79
2023/08/27 01:17:21;;;;;;;9.02;6.45;;;12.80;99.90;;;;;;5041625;28;20132;-77
2023/08/27 01:19:49;;;;;;;10.25;7.20;;;12.70;99.90;;;;;;5047369;28;20069;-79
2023/08/27 01:22:17;;;;;;;7.28;6.57;;;12.80;99.90;;;;;;5049388;28;20105;-79
2023/08/27 01:24:44;;;;;;;7.28;6.57;;;12.80;99.90;;;;;;5051272;28;20059;-77
2023/08/27 01:27:13;;;;;;;7.78;7.07;;;12.80;99.90;;;;;;5043955;28;20079;-79
2023/08/27 01:29:45;;;;;;;8.18;7.53;;;12.60;99.90;;;;;;5050167;28;20052;-79
2023/08/27 01:32:36;;;;;;;8.98;8.23;;;12.50;99.90;;;;;;5045124;28;20036;-77
2023/08/27 01:35:10;;;;;;;11.27;7.70;;;12.60;99.90;;;;;;5043175;28;20525;-77
2023/08/27 01:37:44;;;;;;;8.35;7.57;;;12.70;99.90;;;;;;5040387;28;20048;-78
2023/08/27 01:40:11;;;;;;;8.65;7.63;;;12.70;99.90;;;;;;5046301;28;20490;-78
2023/08/27 01:42:39;;;;;;;8.75;7.68;;;12.50;99.90;;;;;;5045238;28;20048;-78
2023/08/27 01:45:09;;;;;;;10.18;7.60;;;12.60;99.90;;;;;;5036334;28;20045;-77
2023/08/27 01:47:35;;;;;;;9.60;8.10;;;12.50;99.90;;;;;;5046696;28;20066;-78
2023/08/27 01:50:03;;;;;;;9.23;8.25;;;12.40;99.90;;;;;;5046739;28;20059;-78
2023/08/27 01:52:31;;;;;;;9.10;8.15;;;12.30;99.90;;;;;;5044354;28;20040;-78
2023/08/27 01:54:58;;;;;;;9.30;8.38;;;12.30;99.90;;;;;;5049228;28;20040;-77
2023/08/27 01:57:24;;;;;;;9.82;8.38;;;12.30;99.90;;;;;;5060111;28;20040;-77
2023/08/27 01:59:51;;;;;;;9.15;8.38;;;12.30;99.90;;;;;;5027462;28;20051;-77
2023/08/27 02:02:18;;;;;;;9.90;8.88;;;12.20;99.90;;;;;;5018557;28;20223;-78
2023/08/27 02:04:45;;;;;;;9.27;8.23;;;12.40;99.90;;;;;;5050477;28;20040;-77
2023/08/27 02:07:12;;;;;;;11.60;8.50;;;12.30;99.90;;;;;;5039925;28;20107;-77
2023/08/27 02:09:38;;;;;;;9.52;7.90;;;12.50;99.90;;;;;;5042230;28;20052;-77
2023/08/27 02:12:06;;;;;;;10.35;8.32;;;12.40;99.90;;;;;;5040762;28;20063;-78
2023/08/27 02:14:36;;;;;;;9.50;8.70;;;12.40;99.90;;;;;;5039578;28;20037;-77
2023/08/27 02:17:03;;;;;;;8.63;7.82;;;12.20;99.90;;;;;;5031181;28;20051;-77
2023/08/27 02:19:31;;;;;;;8.93;8.10;;;12.40;99.90;;;;;;5048920;28;20077;-77
2023/08/27 02:21:58;;;;;;;8.05;7.30;;;12.50;99.90;;;;;;5050436;28;20049;-76
2023/08/27 02:24:25;;;;;;;11.40;7.88;;;12.40;99.90;;;;;;5053032;28;20056;-77
2023/08/27 02:26:52;;;;;;;8.30;6.85;;;12.40;99.90;;;;;;5052055;28;20071;-78
2023/08/27 02:29:19;;;;;;;7.47;6.07;;;12.40;99.90;;;;;;5062358;28;20052;-79
2023/08/27 02:31:45;;;;;;;11.27;6.72;;;12.40;99.90;;;;;;5048494;28;20154;-78
2023/08/27 02:34:12;;;;;;;8.02;7.03;;;12.20;99.90;;;;;;5049235;28;20048;-79
2023/08/27 02:36:39;;;;;;;7.78;5.97;;;12.10;99.90;;;;;;5070584;28;20048;-77
2023/08/27 02:39:08;;;;;;;8.02;6.22;;;12.10;99.90;;;;;;5048120;28;20063;-78
2023/08/27 02:41:35;;;;;;;6.95;6.22;;;12.10;99.90;;;;;;5054209;28;20064;-78
2023/08/27 02:44:02;;;;;;;7.18;6.47;;;12.10;99.90;;;;;;5054255;28;20101;-78
2023/08/27 02:46:29;;;;;;;8.88;7.07;;;12.20;99.90;;;;;;5067552;28;20533;-77
2023/08/27 02:48:56;;;;;;;9.15;7.13;;;12.20;99.90;;;;;;5054283;28;20052;-77
2023/08/27 02:51:23;;;;;;;10.32;6.78;;;12.20;99.90;;;;;;5048577;28;20048;-77
2023/08/27 02:53:51;;;;;;;9.90;6.40;;;12.20;99.90;;;;;;5056130;28;20052;-77
2023/08/27 02:56:18;;;;;;;10.70;6.90;;;12.10;99.90;;;;;;5036509;28;20503;-78
2023/08/27 02:58:49;;;;;;;12.00;6.85;;;12.30;99.90;;;;;;5041970;28;20051;-77
2023/08/27 03:01:20;;;;;;;8.13;7.10;;;12.20;99.90;;;;;;5042315;28;20052;-77
2023/08/27 03:03:50;;;;;;;8.52;7.03;;;12.10;99.90;;;;;;5037787;28;20052;-78
2023/08/27 03:06:18;;;;;;;7.80;7.00;;;12.30;99.90;;;;;;5032258;28;20055;-78
2023/08/27 03:08:45;;;;;;;10.13;7.00;;;12.40;99.90;;;;;;5036366;28;20810;-78
2023/08/27 03:11:12;;;;;;;8.65;6.47;;;12.20;99.90;;;;;;5030661;28;20044;-76
2023/08/27 03:13:39;;;;;;;8.80;7.00;;;12.10;99.90;;;;;;5049234;28;20062;-77
2023/08/27 03:16:05;;;;;;;9.48;6.88;;;12.10;99.90;;;;;;5048577;28;20044;-77
2023/08/27 03:18:32;;;;;;;9.32;7.22;;;12.10;99.90;;;;;;5048118;28;20927;-76
2023/08/27 03:20:59;;;;;;;8.25;7.45;;;12.10;99.90;;;;;;5036943;28;20632;-78
2023/08/27 03:23:26;;;;;;;10.25;8.25;;;12.10;99.90;;;;;;5052462;28;20047;-77
2023/08/27 03:25:53;;;;;;;10.50;7.95;;;12.10;99.90;;;;;;5066165;28;20040;-79
2023/08/27 03:28:22;;;;;;;8.88;7.90;;;12.00;99.90;;;;;;5063963;28;20290;-77
2023/08/27 03:30:49;;;;;;;8.57;7.78;;;12.20;99.90;;;;;;5037536;28;20161;-77
2023/08/27 03:33:17;;;;;;;11.10;7.82;;;12.30;99.90;;;;;;5065674;28;20131;-77
2023/08/27 03:35:51;;;;;;;12.60;7.50;;;12.20;99.90;;;;;;5052306;28;20040;-77
2023/08/27 03:38:19;;;;;;;7.78;7.05;;;12.20;99.90;;;;;;5031999;28;20052;-77
2023/08/27 03:40:49;;;;;;;9.50;7.53;;;12.10;99.90;;;;;;5047175;28;20063;-78
2023/08/27 03:43:17;;;;;;;8.52;7.80;;;12.10;99.90;;;;;;5051826;28;20410;-78
2023/08/27 03:45:44;;;;;;;8.85;7.22;;;12.20;99.90;;;;;;5037893;28;20044;-78
2023/08/27 03:48:11;;;;;;;8.52;7.68;;;12.30;99.90;;;;;;5057636;28;20068;-79
2023/08/27 03:50:39;;;;;;;8.43;7.60;;;12.30;99.90;;;;;;5048598;28;20052;-79
2023/08/27 03:53:07;;;;;;;13.35;7.45;;;12.30;99.90;;;;;;5037720;28;20044;-78
2023/08/27 03:55:38;;;;;;;8.48;7.63;;;12.20;99.90;;;;;;5069870;28;20036;-78
2023/08/27 03:58:07;;;;;;;9.10;7.18;;;12.20;99.90;;;;;;5053537;28;20049;-78
2023/08/27 04:00:34;;;;;;;11.40;7.43;;;12.10;99.90;;;;;;5053061;28;20456;-79
2023/08/27 04:03:02;;;;;;;12.48;6.93;;;12.10;99.90;;;;;;5073883;28;20552;-79
2023/08/27 04:05:29;;;;;;;9.57;7.60;;;12.10;99.90;;;;;;5051279;28;20063;-78
2023/08/27 04:07:56;;;;;;;9.32;7.50;;;12.10;99.90;;;;;;5051855;28;20102;-79
2023/08/27 04:10:24;;;;;;;9.18;8.07;;;12.20;99.90;;;;;;5033062;28;20048;-79
2023/08/27 04:12:51;;;;;;;8.75;7.95;;;12.10;99.90;;;;;;5061740;28;20036;-78
2023/08/27 04:15:18;;;;;;;8.30;6.88;;;12.10;99.90;;;;;;5051946;28;20048;-79
2023/08/27 04:17:45;;;;;;;8.80;7.07;;;12.20;99.90;;;;;;5051854;28;20044;-78
2023/08/27 04:20:12;;;;;;;9.80;7.15;;;12.30;99.90;;;;;;5039741;28;20045;-78
2023/08/27 04:22:38;;;;;;;10.10;7.68;;;12.30;99.90;;;;;;5057951;28;20044;-78
2023/08/27 04:25:06;;;;;;;10.00;8.02;;;12.20;99.90;;;;;;5061989;28;20063;-78
2023/08/27 04:27:33;;;;;;;8.82;8.05;;;12.10;99.90;;;;;;5052066;28;20040;-78
2023/08/27 04:30:02;;;;;;;13.40;7.90;;;12.10;99.90;;;;;;5058253;28;20051;-78
2023/08/27 04:32:28;;;;;;;9.80;8.20;;;12.20;99.90;;;;;;5056224;28;20788;-78
2023/08/27 04:34:55;;;;;;;10.55;9.10;;;12.10;99.90;;;;;;5055624;28;20040;-78
2023/08/27 04:37:24;;;;;;;15.80;9.07;;;12.10;99.90;;;;;;5051623;28;20048;-78
2023/08/27 04:39:51;;;;;;;9.18;8.27;;;12.20;99.90;;;;;;5060609;28;20055;-78
2023/08/27 04:42:44;;;;;;;8.85;7.85;;;12.10;99.90;;;;;;5052423;28;20052;-79
2023/08/27 04:45:12;;;;;;;10.52;8.63;;;12.00;99.90;;;;;;5054137;28;20049;-78
2023/08/27 04:47:41;;;;;;;11.15;7.75;;;11.90;99.90;;;;;;5034982;28;20124;-78
2023/08/27 04:50:19;;;;;;;10.73;7.78;;;12.00;99.90;;;;;;5068230;28;20053;-78
2023/08/27 04:52:45;;;;;;;9.57;7.82;;;12.00;99.90;;;;;;5043874;28;20052;-78
2023/08/27 04:55:12;;;;;;;7.63;7.00;;;11.90;99.90;;;;;;5075633;28;20048;-77
2023/08/27 04:58:08;;;;;;;7.88;6.85;;;11.90;99.90;;;;;;5059765;28;20048;-79
2023/08/27 05:00:37;;;;;;;14.05;7.18;;;12.00;99.90;;;;;;5061752;28;20131;-77
2023/08/27 05:03:04;;;;;;;8.63;7.70;;;12.20;99.90;;;;;;5059134;28;20108;-78
2023/08/27 05:05:31;;;;;;;11.23;8.30;;;12.30;99.90;;;;;;5055690;28;20059;-77
2023/08/27 05:07:57;;;;;;;9.95;7.43;;;12.30;99.90;;;;;;5048937;28;20056;-77
2023/08/27 05:10:33;;;;;;;9.73;7.68;;;12.10;99.90;;;;;;5034554;28;20053;-77
2023/08/27 05:13:00;;;;;;;11.38;7.25;;;12.20;99.90;;;;;;5044872;28;20052;-77
2023/08/27 05:15:27;;;;;;;10.48;8.18;;;12.30;99.90;;;;;;5046952;28;20063;-77
2023/08/27 05:17:54;;;;;;;7.88;7.18;;;12.40;99.90;;;;;;5033407;28;20123;-78
2023/08/27 05:20:24;;;;;;;8.77;7.80;;;12.30;99.90;;;;;;5049035;28;20723;-77
2023/08/27 05:22:51;;;;;;;8.10;7.13;;;12.30;99.90;;;;;;5052259;28;20463;-79
2023/08/27 05:25:17;;;;;;;12.18;6.82;;;12.40;99.90;;;;;;5050526;28;20045;-78
2023/08/27 05:27:44;;;;;;;7.07;6.13;;;12.20;99.90;;;;;;5049569;28;20048;-79
2023/08/27 05:30:13;;;;;;;7.47;6.70;;;12.20;99.90;;;;;;5055219;28;20075;-78
2023/08/27 05:32:41;;;;;;;9.00;6.72;;;12.30;99.90;;;;;;5046576;28;20127;-78
2023/08/27 05:35:09;;;;;;;8.63;6.95;;;12.20;99.90;;;;;;5055915;28;20036;-78
2023/08/27 05:37:36;;;;;;;7.90;6.05;;;12.30;99.90;;;;;;5037898;28;20036;-78
2023/08/27 05:40:08;;;;;;;6.88;6.28;;;12.20;99.90;;;;;;5057411;28;20048;-77
2023/08/27 05:42:38;;;;;;;9.98;7.22;;;12.30;99.90;;;;;;5053045;28;20044;-79
2023/08/27 05:45:09;;;;;;;8.60;6.78;;;12.40;99.90;;;;;;5059231;28;20055;-78
2023/08/27 05:47:36;;;;;;;9.10;8.10;;;12.30;99.90;;;;;;5057775;28;20070;-78
2023/08/27 05:50:05;;;;;;;8.25;7.65;;;12.50;99.90;;;;;;5044606;28;20052;-78
2023/08/27 05:52:31;;;;;;;8.23;7.60;;;12.50;99.90;;;;;;5032618;28;20050;-79
2023/08/27 05:54:58;;;;;;;9.98;7.63;;;12.50;99.90;;;;;;5053351;28;20048;-78
2023/08/27 05:57:31;;;;;;;9.27;7.53;;;12.50;99.90;;;;;;5053408;28;20052;-78
2023/08/27 05:59:57;;;;;;;8.90;8.20;;;12.40;99.90;;;;;;5057771;28;20052;-78
2023/08/27 06:02:24;;;;;;;11.07;7.95;;;12.50;99.90;;;;;;5060961;28;20093;-78
2023/08/27 06:04:52;;;;;;;13.27;8.32;;;12.50;99.90;;;;;;5058585;28;20063;-78
2023/08/27 06:07:19;;;;;;;7.70;7.10;;;12.70;99.90;;;;;;5059058;28;20040;-78
2023/08/27 06:09:55;;;;;;;8.55;7.85;;;12.90;99.90;;;;;;5055702;28;20083;-78
2023/08/27 06:12:22;;;;;;;8.45;7.28;;;12.90;99.90;;;;;;5060048;28;20040;-78
2023/08/27 06:14:49;;;;;;;7.45;6.78;;;13.00;99.90;;;;;;5070689;28;20127;-80
2023/08/27 06:17:17;;;;;;;7.43;6.65;;;13.10;99.90;;;;;;5066096;28;20047;-79
2023/08/27 06:19:43;;;;;;;8.35;7.50;;;13.10;99.90;;;;;;5051789;28;20215;-79
2023/08/27 06:22:15;;;;;;;7.60;6.90;;;12.90;99.90;;;;;;5056329;28;20055;-78
2023/08/27 06:24:43;;;;;;;8.63;7.38;;;12.90;99.90;;;;;;5061205;28;20044;-77
2023/08/27 06:27:10;;;;;;;8.05;7.40;;;12.90;99.90;;;;;;5053820;28;20037;-77
2023/08/27 06:29:37;;;;;;;9.10;8.30;;;13.00;99.90;;;;;;5059160;28;20040;-81
2023/08/27 06:32:04;;;;;;;8.18;7.35;;;13.10;99.90;;;;;;5075551;28;20035;-77
2023/08/27 06:34:34;;;;;;;7.57;6.93;;;13.20;99.90;;;;;;5073046;28;20068;-77
2023/08/27 06:37:04;;;;;;;7.57;6.85;;;13.20;99.90;;;;;;5030775;28;20040;-78
2023/08/27 06:39:34;;;;;;;7.60;7.00;;;13.40;99.90;;;;;;5020089;28;20056;-78
2023/08/27 06:42:01;;;;;;;7.20;6.70;;;13.50;99.90;;;;;;5056187;28;20047;-77
2023/08/27 06:44:31;;;;;;;7.97;7.47;;;13.60;99.90;;;;;;5050644;28;20049;-77
2023/08/27 06:47:30;;;;;;;9.85;7.82;;;13.80;99.90;;;;;;5055387;28;20032;-81
2023/08/27 06:50:00;;;;;;;9.43;8.25;;;13.90;99.90;;;;;;5041299;28;20438;-77
2023/08/27 06:52:27;;;;;;;8.32;7.78;;;14.00;99.90;;;;;;5043321;28;20456;-78
2023/08/27 06:54:53;;;;;;;9.63;8.95;;;13.90;99.90;;;;;;5049548;28;20523;-78
2023/08/27 06:57:21;;;;;;;9.32;8.73;;;13.80;99.90;;;;;;5044559;28;20154;-79
2023/08/27 06:59:48;;;;;;;8.57;7.75;;;13.70;99.90;;;;;;5066319;28;20044;-77
2023/08/27 07:02:15;;;;;;;9.10;8.27;;;14.00;99.90;;;;;;5055689;28;20044;-80
2023/08/27 07:04:51;;;;;;;8.95;8.43;;;14.20;99.90;;;;;;5053289;28;20709;-78
2023/08/27 07:07:19;;;;;;;9.65;8.77;;;14.30;99.90;;;;;;5046125;28;20324;-80
2023/08/27 07:09:46;;;;;;;9.02;8.40;;;14.40;99.90;;;;;;5048793;28;20348;-79
2023/08/27 07:12:21;;;;;;;10.15;9.40;;;14.50;99.90;;;;;;5066394;28;20043;-79
2023/08/27 07:14:51;;;;;;;9.95;9.45;;;14.60;99.90;;;;;;5072102;28;20043;-78
2023/08/27 07:17:18;;;;;;;10.63;9.82;;;14.70;99.90;;;;;;5046628;28;20048;-77
2023/08/27 07:19:45;;;;;;;10.85;10.15;;;14.70;99.90;;;;;;5037841;28;20400;-78
2023/08/27 07:22:11;;;;;;;11.93;11.00;;;15.00;99.90;;;;;;5050463;28;20051;-77
2023/08/27 07:24:38;;;;;;;11.20;10.50;;;15.20;99.90;;;;;;5049468;28;20080;-77
2023/08/27 07:27:05;;;;;;;11.95;11.15;;;15.40;99.90;;;;;;5053044;28;20051;-77
2023/08/27 07:29:32;;;;;;;12.52;11.82;;;15.60;99.90;;;;;;5050372;28;20059;-79
2023/08/27 07:31:58;;;;;;;13.38;12.40;;;15.80;99.90;;;;;;5060031;28;20047;-78
2023/08/27 07:34:25;;;;;;;14.70;13.52;;;16.00;99.90;;;;;;5057409;28;20043;-78
2023/08/27 07:36:55;;;;;;;16.60;15.50;;;16.20;99.90;;;;;;5050242;28;20280;-78
2023/08/27 07:39:22;;;;;;;17.10;16.10;;;16.30;99.90;;;;;;5058698;28;20040;-78
2023/08/27 07:41:50;;;;;;;16.42;15.45;;;16.40;99.90;;;;;;5043783;28;20044;-79
2023/08/27 07:44:17;;;;;;;18.10;16.90;;;16.60;99.90;;;;;;5062798;28;20052;-77
2023/08/27 07:46:44;;;;;;;17.65;16.65;;;16.80;99.90;;;;;;5042158;28;20050;-78
2023/08/27 07:49:11;;;;;;;18.48;17.27;;;17.00;99.90;;;;;;5048388;28;20063;-77
2023/08/27 07:51:38;;;;;;;17.52;16.52;;;17.20;99.90;;;;;;5052321;28;20048;-78
2023/08/27 07:54:04;;;;;;;17.48;16.48;;;17.40;99.90;;;;;;5054082;28;20044;-78
2023/08/27 07:56:31;;;;;;;17.98;16.92;;;17.50;99.90;;;;;;5054387;28;20967;-78
2023/08/27 07:58:58;;;;;;;18.73;17.63;;;17.60;99.90;;;;;;5057015;28;20059;-78
2023/08/27 08:01:26;;;;;;;18.73;17.58;;;17.80;99.90;;;;;;5067429;28;20044;-78
2023/08/27 08:03:53;;;;;;;18.52;17.17;;;17.90;99.90;;;;;;5034822;28;20131;-79
2023/08/27 08:06:20;;;;;;;19.10;18.02;;;18.00;99.90;;;;;;5052298;28;20420;-78
2023/08/27 08:08:47;;;;;;;19.08;17.88;;;18.20;99.90;;;;;;5053700;28;20063;-79
2023/08/27 08:11:14;;;;;;;19.35;18.25;;;18.20;99.90;;;;;;5058985;28;20059;-78
2023/08/27 08:13:47;;;;;;;19.85;18.35;;;18.40;99.90;;;;;;5047670;28;20033;-78
2023/08/27 08:16:17;;;;;;;20.63;19.42;;;18.50;99.90;;;;;;5069988;28;20348;-79
2023/08/27 08:18:48;;;;;;;20.33;19.33;;;18.80;99.90;;;;;;5047267;28;20052;-80
2023/08/27 08:21:15;;;;;;;20.35;19.13;;;18.90;99.90;;;;;;5075261;28;20028;-79
2023/08/27 08:23:41;;;;;;;21.10;19.90;;;19.30;99.90;;;;;;5077260;28;20089;-79
2023/08/27 08:26:09;;;;;;;22.63;21.25;;;19.40;99.90;;;;;;5059828;28;20056;-78
2023/08/27 08:28:36;;;;;;;20.92;19.73;;;19.40;99.90;;;;;;5058752;28;20059;-78
2023/08/27 08:31:03;;;;;;;20.83;19.73;;;19.40;99.90;;;;;;5048490;28;20433;-78
2023/08/27 08:33:29;;;;;;;20.60;19.40;;;19.40;99.90;;;;;;5051255;28;20048;-78
2023/08/27 08:35:56;;;;;;;20.80;19.60;;;19.40;99.90;;;;;;5055698;28;20032;-78
2023/08/27 08:38:23;;;;;;;21.17;20.08;;;19.20;99.90;;;;;;5050550;28;20043;-79
2023/08/27 08:41:02;;;;;;;22.05;20.40;;;19.10;99.90;;;;;;5063985;28;20036;-78
2023/08/27 08:44:02;;;;;;;21.13;19.92;;;19.10;99.90;;;;;;5051594;28;20040;-78
2023/08/27 08:46:35;;;;;;;21.00;19.90;;;19.00;99.90;;;;;;5018779;28;20190;-79
2023/08/27 08:49:10;;;;;;;20.95;19.55;;;19.00;99.90;;;;;;5051054;28;20170;-81
2023/08/27 08:51:38;;;;;;;21.42;20.02;;;19.00;99.90;;;;;;5073654;28;20495;-78
2023/08/27 08:54:07;;;;;;;21.75;20.55;;;18.90;99.90;;;;;;5061055;28;20444;-79
2023/08/27 08:56:40;;;;;;;21.67;20.40;;;18.60;99.90;;;;;;5081695;28;20047;-79
2023/08/27 08:59:07;;;;;;;22.48;21.08;;;18.40;99.90;;;;;;5054496;28;20044;-78
2023/08/27 09:01:40;;;;;;;21.67;20.48;;;18.00;99.90;;;;;;5072511;28;20036;-77
2023/08/27 09:04:07;;;;;;;22.58;20.80;;;17.70;99.90;;;;;;5075179;28;20104;-79
2023/08/27 09:06:37;;;;;;;22.30;20.90;;;17.70;99.90;;;;;;5074740;28;20048;-79
2023/08/27 09:09:04;;;;;;;21.00;19.75;;;17.70;99.90;;;;;;5066261;28;22428;-79
2023/08/27 09:11:35;;;;;;;21.55;20.05;;;17.60;99.90;;;;;;5061568;28;20080;-78
2023/08/27 09:14:03;;;;;;;20.10;18.95;;;17.50;99.90;;;;;;5055226;28;20048;-80
2023/08/27 09:16:30;;;;;;;19.40;18.40;;;17.60;99.90;;;;;;5077894;28;20043;-78
2023/08/27 09:18:57;;;;;;;19.63;18.45;;;17.60;99.90;;;;;;5057688;28;20109;-79
2023/08/27 09:21:24;;;;;;;19.67;18.48;;;17.70;99.90;;;;;;5037886;28;20051;-78
2023/08/27 09:23:54;;;;;;;20.60;19.40;;;17.90;99.90;;;;;;5068135;28;20056;-78
2023/08/27 09:26:21;;;;;;;20.05;18.85;;;17.80;99.90;;;;;;5047001;28;20043;-78
2023/08/27 09:29:11;;;;;;;21.45;20.25;;;17.90;99.90;;;;;;5074076;28;20418;-79
2023/08/27 09:31:43;;;;;;;20.27;19.17;;;18.10;99.90;;;;;;5050248;28;20045;-78
2023/08/27 09:34:12;;;;;;;20.23;18.92;;;18.20;99.90;;;;;;5031803;28;20414;-77
2023/08/27 09:36:39;;;;;;;19.80;18.70;;;18.20;99.90;;;;;;5072144;28;20564;-78
2023/08/27 09:39:10;;;;;;;20.88;19.52;;;18.30;99.90;;;;;;5056136;28;20881;-79
2023/08/27 09:41:41;;;;;;;20.50;19.40;;;18.40;99.90;;;;;;5070475;28;20028;-78
2023/08/27 09:44:09;;;;;;;20.73;19.52;;;18.40;99.90;;;;;;5060944;28;20760;-79
2023/08/27 09:46:47;;;;;;;20.08;18.98;;;18.40;99.90;;;;;;5076594;28;20032;-80
2023/08/27 09:49:14;;;;;;;19.70;18.63;;;18.50;99.90;;;;;;5048405;28;20049;-82
2023/08/27 09:51:41;;;;;;;20.50;19.33;;;18.30;99.90;;;;;;5035808;28;20051;-77
2023/08/27 09:54:19;;;;;;;21.20;19.90;;;18.10;99.90;;;;;;5059475;28;21480;-80
2023/08/27 09:56:48;;;;;;;20.88;19.45;;;18.10;99.90;;;;;;5046220;28;20469;-82
2023/08/27 09:59:18;;;;;;;21.20;19.95;;;18.10;99.90;;;;;;5048705;28;20043;-81
2023/08/27 10:01:49;;;;;;;21.23;20.02;;;18.30;99.90;;;;;;5053265;28;20070;-75
2023/08/27 10:04:17;;;;;;;20.80;19.60;;;18.40;99.90;;;;;;5048191;28;20828;-78
2023/08/27 10:06:44;;;;;;;20.67;19.42;;;18.40;99.90;;;;;;5045355;28;20767;-75
2023/08/27 10:09:11;;;;;;;21.10;19.90;;;18.40;99.90;;;;;;5047708;28;20051;-77
2023/08/27 10:11:40;;;;;;;21.10;19.63;;;18.20;99.90;;;;;;5064726;28;20120;-78
2023/08/27 10:14:07;;;;;;;20.95;19.75;;;18.10;99.90;;;;;;5055424;28;20052;-76
2023/08/27 10:16:45;;;;;;;19.73;18.65;;;18.20;99.90;;;;;;5041440;28;20552;-77
2023/08/27 10:19:35;;;;;;;20.13;18.92;;;18.30;99.90;;;;;;5022531;28;20056;-78
2023/08/27 10:22:22;;;;;;;20.50;19.17;;;18.50;99.90;;;;;;5046961;28;20047;-77
2023/08/27 10:25:17;;;;;;;21.05;19.85;;;18.40;99.90;;;;;;5045218;28;20112;-77
2023/08/27 10:27:51;;;;;;;20.90;19.63;;;18.30;99.90;;;;;;5050240;28;20040;-78
2023/08/27 10:30:18;;;;;;;20.80;19.70;;;18.40;99.90;;;;;;5035175;28;20795;-79
2023/08/27 10:32:46;;;;;;;21.05;19.73;;;18.30;99.90;;;;;;5067280;28;20680;-78
2023/08/27 10:35:14;;;;;;;22.23;21.02;;;18.30;99.90;;;;;;5062514;28;20082;-78
2023/08/27 10:37:47;;;;;;;21.98;20.40;;;18.20;99.90;;;;;;5045924;28;20491;-79
2023/08/27 10:40:15;;;;;;;21.00;19.90;;;18.00;99.90;;;;;;5056742;28;20897;-79
2023/08/27 10:42:42;;;;;;;21.50;20.40;;;17.90;99.90;;;;;;5040144;28;20045;-77
2023/08/27 10:45:18;;;;;;;21.52;20.23;;;17.90;99.90;;;;;;5063491;28;20059;-79
2023/08/27 10:48:17;;;;;;;21.30;20.00;;;17.80;99.90;;;;;;5046223;28;20044;-78
2023/08/27 10:50:51;;;;;;;21.63;20.42;;;17.70;99.90;;;;;;5068349;28;20420;-78
2023/08/27 10:53:24;;;;;;;21.50;20.20;;;17.70;99.90;;;;;;5054313;28;20076;-78
2023/08/27 10:55:52;;;;;;;21.60;20.30;;;17.70;99.90;;;;;;5052351;28;20036;-78
2023/08/27 10:58:26;;;;;;;21.73;20.33;;;17.70;99.90;;;;;;5050907;28;20711;-78
2023/08/27 11:01:08;;;;;;;21.83;20.58;;;17.60;99.90;;;;;;5035450;28;20047;-77
2023/08/27 11:03:58;;;;;;;21.08;19.95;;;17.50;99.90;;;;;;5047163;28;20052;-78
2023/08/27 11:07:04;;;;;;;20.90;19.70;;;17.60;99.90;;;;;;5053909;28;20933;-78
2023/08/27 11:09:55;;;;;;;21.30;20.10;;;17.70;99.90;;;;;;5060660;28;20252;-77
2023/08/27 11:12:28;;;;;;;21.13;19.92;;;17.80;99.90;;;;;;5031507;28;20098;-77
2023/08/27 11:15:08;;;;;;;21.10;19.80;;;17.90;99.90;;;;;;5054222;28;20071;-80
2023/08/27 11:17:35;;;;;;;21.30;19.80;;;17.90;99.90;;;;;;5066084;28;20071;-78
2023/08/27 11:20:36;;;;;;;21.00;19.67;;;18.00;99.90;;;;;;5044951;28;20052;-78
2023/08/27 11:23:20;;;;;;;21.40;20.10;;;17.90;99.90;;;;;;5043554;28;20051;-77
2023/08/27 11:25:48;;;;;;;21.25;19.95;;;18.00;99.90;;;;;;5050578;28;20036;-78
2023/08/27 11:28:15;;;;;;;21.92;20.20;;;17.90;99.90;;;;;;5064505;28;21435;-77
2023/08/27 11:30:44;;;;;;;21.45;20.17;;;17.90;99.90;;;;;;5052621;28;20036;-77
2023/08/27 11:33:14;;;;;;;21.60;20.20;;;17.80;99.90;;;;;;5054001;28;20127;-78
2023/08/27 11:35:41;;;;;;;22.88;21.13;;;17.80;99.90;;;;;;5057737;28;20044;-78
2023/08/27 11:38:10;;;;;;;21.98;20.58;;;17.70;99.90;;;;;;5049975;28;20066;-78
2023/08/27 11:40:37;;;;;;;21.23;20.02;;;17.80;99.90;;;;;;5040276;28;20051;-78
2023/08/27 11:43:10;;;;;;;21.67;20.25;;;17.70;99.90;;;;;;5052578;28;20052;-77
2023/08/27 11:45:40;;;;;;;21.40;19.90;;;17.70;99.90;;;;;;5057173;28;20113;-77
2023/08/27 11:48:08;;;;;;;21.77;20.50;;;17.70;99.90;;;;;;5077880;28;20542;-76
2023/08/27 11:50:38;;;;;;;21.52;20.33;;;17.70;99.90;;;;;;5055386;28;20048;-75
2023/08/27 11:53:06;;;;;;;21.35;20.00;;;17.80;99.90;;;;;;5048108;28;20089;-78
2023/08/27 11:55:33;;;;;;;21.65;20.45;;;17.80;99.90;;;;;;5078574;28;20660;-77
2023/08/27 11:58:00;;;;;;;21.75;20.45;;;17.90;99.90;;;;;;5071264;28;20133;-77
2023/08/27 12:00:30;;;;;;;21.90;20.55;;;17.80;99.90;;;;;;5048883;28;20052;-76
2023/08/27 12:03:02;;;;;;;22.15;20.70;;;17.90;99.90;;;;;;5051833;28;20049;-77
2023/08/27 12:05:29;;;;;;;20.92;19.73;;;18.10;99.90;;;;;;5070118;28;20083;-76
2023/08/27 12:07:57;;;;;;;21.33;19.98;;;18.10;99.90;;;;;;5067166;28;20055;-76
2023/08/27 12:10:24;;;;;;;21.10;19.90;;;18.20;99.90;;;;;;5030728;28;20040;-77
2023/08/27 12:12:51;;;;;;;21.65;20.15;;;18.00;99.90;;;;;;5050545;28;20119;-77
2023/08/27 12:15:47;;;;;;;21.63;20.42;;;18.00;99.90;;;;;;5037549;28;20164;-78
2023/08/27 12:18:13;;;;;;;21.33;20.02;;;18.00;99.90;;;;;;5058393;28;20140;-77
2023/08/27 12:20:40;;;;;;;21.23;19.92;;;18.10;99.90;;;;;;5056963;28;20059;-78
2023/08/27 12:23:15;;;;;;;21.90;20.40;;;18.20;99.90;;;;;;5050828;28;20063;-78
2023/08/27 12:25:53;;;;;;;21.52;20.33;;;18.40;99.90;;;;;;5033008;28;20055;-79
2023/08/27 12:28:24;;;;;;;22.10;20.73;;;18.50;99.90;;;;;;5047815;28;20454;-78
2023/08/27 12:30:55;;;;;;;22.25;20.95;;;18.60;99.90;;;;;;5050106;28;20036;-77
2023/08/27 12:33:39;;;;;;;22.83;21.42;;;18.60;99.90;;;;;;5030377;28;20074;-78
2023/08/27 12:36:07;;;;;;;23.42;21.92;;;18.70;99.90;;;;;;5046836;28;20060;-80
2023/08/27 12:38:34;;;;;;;22.25;21.05;;;19.00;99.90;;;;;;5052631;28;20052;-79
2023/08/27 12:41:09;;;;;;;23.15;21.95;;;19.40;99.90;;;;;;5050192;28;20043;-80
2023/08/27 12:44:01;;;;;;;22.88;21.52;;;19.30;99.90;;;;;;5065236;28;20341;-82
2023/08/27 12:46:27;;;;;;;23.08;21.38;;;19.70;99.90;;;;;;5053214;28;20050;-79
2023/08/27 12:48:54;;;;;;;22.85;21.55;;;19.80;99.90;;;;;;5070864;28;20079;-80
2023/08/27 12:51:21;;;;;;;22.30;21.00;;;20.00;99.90;;;;;;5066311;28;20397;-78